Time;durP1;ratioP1;P1;durP2;ratioP2;P2;SDS_P1;SDS_P2;PMS_P1;PMS_P2;Temp;Humidity;BMP_temperature;BMP_pressure;BME280_temperature;BME280_humidity;BME280_pressure;Samples;Min_cycle;Max_cycle;Signal;HPM_P1;HPM_P2
2022/05/03 00:02:20;;;;;;;9.43;7.32;;;6.50;99.90;;;;;;5057014;28;20095;-61
2022/05/03 00:04:57;;;;;;;9.05;7.03;;;6.40;99.90;;;;;;5074276;28;20072;-61
2022/05/03 00:07:28;;;;;;;11.27;7.90;;;6.40;99.90;;;;;;5056606;28;20484;-62
2022/05/03 00:10:02;;;;;;;;;;;6.40;99.90;;;;;;5074130;28;20475;-62
2022/05/03 00:12:35;;;;;;;12.80;8.77;;;6.30;99.90;;;;;;5074378;28;20006;-63
2022/05/03 00:15:05;;;;;;;12.43;8.52;;;6.30;99.90;;;;;;5056821;28;20067;-62
2022/05/03 00:17:33;;;;;;;11.85;8.27;;;6.20;99.90;;;;;;5056497;28;20044;-62
2022/05/03 00:20:00;;;;;;;9.70;7.78;;;6.20;99.90;;;;;;5073528;28;20628;-63
2022/05/03 00:22:27;;;;;;;10.40;7.80;;;6.20;99.90;;;;;;5074358;28;20064;-62
2022/05/03 00:24:55;;;;;;;8.98;7.22;;;6.20;99.90;;;;;;5052274;28;20525;-62
2022/05/03 00:27:25;;;;;;;9.80;7.40;;;6.20;99.90;;;;;;5054413;28;20055;-61
2022/05/03 00:29:54;;;;;;;10.77;7.93;;;6.10;99.90;;;;;;5053925;28;20381;-62
2022/05/03 00:32:23;;;;;;;9.27;7.85;;;6.10;99.90;;;;;;5053693;28;20288;-63
2022/05/03 00:34:50;;;;;;;10.95;7.60;;;6.10;99.90;;;;;;5036259;28;20174;-62
2022/05/03 00:37:18;;;;;;;11.90;8.48;;;6.10;99.90;;;;;;5036135;28;20076;-61
2022/05/03 00:39:45;;;;;;;13.00;8.15;;;6.10;99.90;;;;;;5058704;28;20116;-62
2022/05/03 00:42:18;;;;;;;13.88;9.13;;;6.10;99.90;;;;;;5073934;28;20076;-62
2022/05/03 00:44:58;;;;;;;10.05;8.32;;;6.10;99.90;;;;;;5073947;28;20087;-62
2022/05/03 00:47:34;;;;;;;10.07;7.18;;;6.10;99.90;;;;;;5073251;28;20086;-63
2022/05/03 00:50:06;;;;;;;9.00;7.60;;;6.00;99.90;;;;;;5073932;28;20551;-62
2022/05/03 00:52:38;;;;;;;9.77;7.22;;;6.00;99.90;;;;;;5076040;28;20044;-62
2022/05/03 00:55:37;;;;;;;10.88;7.75;;;6.00;99.90;;;;;;5080530;28;20056;-62
2022/05/03 00:58:26;;;;;;;9.20;7.53;;;5.90;99.90;;;;;;5055852;28;20080;-61
2022/05/03 01:01:00;;;;;;;9.20;7.57;;;5.90;99.90;;;;;;5072855;28;20045;-62
2022/05/03 01:03:37;;;;;;;9.73;7.30;;;5.90;99.90;;;;;;5052479;28;20075;-62
2022/05/03 01:06:17;;;;;;;9.55;7.45;;;5.80;99.90;;;;;;5035369;28;20132;-61
2022/05/03 01:08:56;;;;;;;9.25;7.10;;;5.80;99.90;;;;;;5052677;28;20049;-61
2022/05/03 01:11:34;;;;;;;8.40;6.72;;;5.70;99.90;;;;;;5053289;28;20102;-61
2022/05/03 01:14:11;;;;;;;10.90;6.93;;;5.70;99.90;;;;;;5035537;28;20087;-63
2022/05/03 01:16:47;;;;;;;9.23;7.28;;;5.60;99.90;;;;;;5053334;28;20080;-62
2022/05/03 01:19:42;;;;;;;10.43;6.40;;;5.60;99.90;;;;;;5035568;28;20555;-61
2022/05/03 01:22:34;;;;;;;7.78;6.35;;;5.50;99.90;;;;;;5034606;28;20059;-62
2022/05/03 01:25:26;;;;;;;9.15;7.30;;;5.50;99.90;;;;;;5015807;28;20599;-62
2022/05/03 01:28:04;;;;;;;8.07;6.68;;;5.50;99.90;;;;;;5032923;28;20107;-61
2022/05/03 01:30:35;;;;;;;10.60;7.28;;;5.40;99.90;;;;;;5015254;28;20409;-62
2022/05/03 01:33:06;;;;;;;;;;;5.40;99.90;;;;;;5033301;28;20056;-62
2022/05/03 01:35:38;;;;;;;8.23;6.80;;;5.40;99.90;;;;;;5032649;28;20012;-61
2022/05/03 01:38:13;;;;;;;8.48;7.57;;;5.30;99.90;;;;;;5026040;28;20088;-62
2022/05/03 01:41:02;;;;;;;9.93;8.00;;;5.30;99.90;;;;;;5052852;28;20152;-62
2022/05/03 01:43:49;;;;;;;9.00;6.78;;;5.30;99.90;;;;;;5033148;28;20056;-62
2022/05/03 01:46:23;;;;;;;8.50;7.35;;;5.30;99.90;;;;;;5052996;28;20120;-63
2022/05/03 01:51:58;;;;;;;10.70;8.27;;;5.30;99.90;;;;;;5070448;28;20084;-62
2022/05/03 01:54:59;;;;;;;10.70;8.25;;;5.20;99.90;;;;;;5034991;28;20053;-62
2022/05/03 01:57:31;;;;;;;12.82;8.48;;;5.30;99.90;;;;;;5051930;28;20056;-61
2022/05/03 02:00:05;;;;;;;9.18;7.93;;;5.30;99.90;;;;;;5052519;28;20127;-62
2022/05/03 02:02:53;;;;;;;11.50;8.15;;;5.20;99.90;;;;;;5034966;28;20447;-60
2022/05/03 02:05:51;;;;;;;9.95;7.90;;;5.20;99.90;;;;;;5052250;28;20059;-62
2022/05/03 02:08:20;;;;;;;11.07;8.57;;;5.20;99.90;;;;;;5052398;28;20133;-63
2022/05/03 02:10:58;;;;;;;12.27;8.82;;;5.20;99.90;;;;;;5033913;28;20135;-62
2022/05/03 02:16:38;;;;;;;12.27;9.75;;;5.20;99.90;;;;;;5052529;28;20045;-61
2022/05/03 02:19:28;;;;;;;13.02;9.48;;;5.10;99.90;;;;;;5033826;28;20128;-63
2022/05/03 02:22:15;;;;;;;12.18;9.77;;;5.10;99.90;;;;;;5034412;28;20144;-61
2022/05/03 02:24:51;;;;;;;13.43;10.35;;;5.10;99.90;;;;;;5034497;28;20488;-61
2022/05/03 02:27:20;;;;;;;10.70;9.20;;;5.10;99.90;;;;;;5052310;28;20139;-61
2022/05/03 02:29:48;;;;;;;12.63;9.85;;;5.10;99.90;;;;;;5034309;28;20080;-62
2022/05/03 02:32:22;;;;;;;15.00;10.43;;;5.10;99.90;;;;;;5051883;28;20470;-62
2022/05/03 02:34:58;;;;;;;15.30;10.80;;;5.20;99.90;;;;;;5052631;28;20497;-62
2022/05/03 02:37:28;;;;;;;12.68;10.52;;;5.30;99.90;;;;;;5052024;28;20104;-62
2022/05/03 02:40:00;;;;;;;12.43;10.32;;;5.40;99.90;;;;;;5033635;28;20085;-63
2022/05/03 02:42:28;;;;;;;16.88;11.20;;;5.50;99.90;;;;;;5034695;28;20141;-61
2022/05/03 02:44:57;;;;;;;16.13;10.80;;;5.60;99.90;;;;;;5054216;28;20408;-62
2022/05/03 02:47:35;;;;;;;15.38;10.30;;;5.70;99.90;;;;;;5055456;28;20568;-62
2022/05/03 02:50:09;;;;;;;14.80;10.27;;;5.90;99.90;;;;;;5056237;28;20141;-62
2022/05/03 02:52:43;;;;;;;15.25;11.07;;;6.00;99.90;;;;;;5044602;28;20132;-61
2022/05/03 02:55:19;;;;;;;14.00;10.38;;;6.10;99.90;;;;;;5056166;28;20085;-62
2022/05/03 02:57:54;;;;;;;14.45;11.38;;;6.20;99.90;;;;;;5038278;28;20451;-62
2022/05/03 03:03:40;;;;;;;25.95;12.52;;;6.40;99.90;;;;;;5073398;28;20052;-62
2022/05/03 03:06:20;;;;;;;16.25;11.93;;;6.50;99.90;;;;;;5055293;28;20131;-63
2022/05/03 03:08:49;;;;;;;18.27;11.93;;;6.60;99.90;;;;;;5038619;28;20144;-62
2022/05/03 03:11:28;;;;;;;15.32;12.70;;;6.70;99.90;;;;;;5038220;28;20053;-61
2022/05/03 03:14:06;;;;;;;16.88;11.75;;;6.70;99.90;;;;;;5037515;28;20480;-61
2022/05/03 03:16:35;;;;;;;16.45;11.70;;;6.80;99.90;;;;;;5038008;28;20145;-63
2022/05/03 03:19:18;;;;;;;15.63;12.25;;;6.80;99.90;;;;;;5055598;28;20053;-61
2022/05/03 03:21:49;;;;;;;14.63;11.40;;;6.90;99.90;;;;;;5054969;28;20106;-62
2022/05/03 03:24:18;;;;;;;14.30;11.73;;;6.90;99.90;;;;;;5061454;28;20140;-62
2022/05/03 03:26:48;;;;;;;13.75;10.73;;;6.90;99.90;;;;;;5075472;28;20121;-62
2022/05/03 03:29:16;;;;;;;15.35;11.50;;;6.80;99.90;;;;;;5057223;28;20091;-62
2022/05/03 03:31:44;;;;;;;14.95;11.07;;;6.90;99.90;;;;;;5057408;28;20131;-62
2022/05/03 03:34:12;;;;;;;16.80;11.00;;;6.90;99.90;;;;;;5075327;28;20080;-61
2022/05/03 03:36:42;;;;;;;16.15;11.88;;;7.00;99.90;;;;;;5074538;28;20127;-61
2022/05/03 03:39:10;;;;;;;15.15;12.00;;;6.90;99.90;;;;;;5046961;28;20125;-61
2022/05/03 03:41:37;;;;;;;15.88;11.48;;;7.00;99.90;;;;;;5035162;28;20096;-62
2022/05/03 03:44:05;;;;;;;15.55;11.98;;;7.00;99.90;;;;;;5034520;28;20092;-63
2022/05/03 03:46:33;;;;;;;16.23;11.82;;;7.10;99.90;;;;;;5017289;28;20085;-63
2022/05/03 03:49:00;;;;;;;15.15;11.40;;;7.20;99.90;;;;;;5021918;28;20054;-63
2022/05/03 03:51:27;;;;;;;14.88;11.40;;;7.20;99.90;;;;;;5043490;28;20115;-62
2022/05/03 03:53:54;;;;;;;12.75;10.85;;;7.30;99.90;;;;;;5049757;28;20116;-62
2022/05/03 03:56:23;;;;;;;16.25;12.13;;;7.30;99.90;;;;;;5028156;28;20139;-62
2022/05/03 03:58:50;;;;;;;15.50;12.05;;;7.30;99.90;;;;;;5046765;28;20136;-62
2022/05/03 04:01:17;;;;;;;14.02;11.88;;;7.30;99.90;;;;;;5031683;28;20536;-63
2022/05/03 04:03:45;;;;;;;13.05;9.70;;;7.40;99.90;;;;;;5034562;28;20517;-61
2022/05/03 04:06:12;;;;;;;13.43;10.93;;;7.50;99.90;;;;;;5036379;28;20225;-62
2022/05/03 04:08:39;;;;;;;13.65;10.70;;;7.60;99.90;;;;;;5052472;28;20094;-61
2022/05/03 04:11:15;;;;;;;14.90;11.27;;;7.90;99.90;;;;;;5052080;28;20049;-62
2022/05/03 04:13:44;;;;;;;15.23;10.27;;;8.00;99.90;;;;;;5052525;28;20052;-62
2022/05/03 04:16:11;;;;;;;13.13;11.63;;;8.20;99.90;;;;;;5035081;28;20049;-63
2022/05/03 04:18:47;;;;;;;16.58;12.18;;;8.30;99.90;;;;;;5051787;28;20567;-63
2022/05/03 04:21:15;;;;;;;12.05;10.13;;;8.30;99.90;;;;;;5052775;28;20136;-61
2022/05/03 04:23:42;;;;;;;19.10;12.60;;;8.30;99.90;;;;;;5052878;28;20047;-61
2022/05/03 04:26:10;;;;;;;20.13;11.82;;;8.30;99.90;;;;;;5052291;28;20104;-61
2022/05/03 04:28:37;;;;;;;16.10;11.60;;;8.20;99.90;;;;;;5034213;28;20041;-61
2022/05/03 04:31:05;;;;;;;16.85;11.85;;;8.20;99.90;;;;;;5034636;28;20500;-62
2022/05/03 04:33:32;;;;;;;14.95;11.95;;;8.80;99.90;;;;;;5035547;28;20075;-62
2022/05/03 04:35:59;;;;;;;16.92;12.73;;;8.60;99.90;;;;;;5041879;28;20472;-62
2022/05/03 04:38:26;;;;;;;16.65;11.52;;;8.60;99.90;;;;;;5054455;28;20569;-62
2022/05/03 04:40:59;;;;;;;16.88;12.20;;;8.50;99.90;;;;;;5052653;28;20451;-63
2022/05/03 04:43:26;;;;;;;16.98;12.65;;;9.40;99.90;;;;;;5011599;28;21293;-62
2022/05/03 04:45:53;;;;;;;19.17;13.38;;;8.90;99.90;;;;;;5034260;28;20091;-63
2022/05/03 04:48:21;;;;;;;18.10;13.63;;;8.90;99.90;;;;;;5061648;28;20504;-63
2022/05/03 04:50:48;;;;;;;21.08;14.13;;;8.80;99.90;;;;;;5046385;28;20058;-62
2022/05/03 04:53:16;;;;;;;18.17;14.45;;;8.70;99.90;;;;;;5053333;28;20514;-61
2022/05/03 04:55:43;;;;;;;18.70;13.13;;;8.60;99.90;;;;;;5052649;28;20456;-61
2022/05/03 04:58:10;;;;;;;19.45;14.20;;;8.60;99.90;;;;;;5052315;28;20126;-62
2022/05/03 05:00:37;;;;;;;18.73;14.98;;;8.60;99.90;;;;;;5059671;28;20128;-61
2022/05/03 05:03:04;;;;;;;22.33;15.40;;;8.50;99.90;;;;;;5036271;28;20480;-61
2022/05/03 05:05:32;;;;;;;23.65;15.60;;;8.60;99.90;;;;;;5052457;28;20052;-63
2022/05/03 05:08:03;;;;;;;20.95;14.65;;;8.60;99.90;;;;;;5057140;28;20463;-62
2022/05/03 05:10:32;;;;;;;21.10;15.75;;;8.50;99.90;;;;;;5035052;28;20056;-62
2022/05/03 05:13:00;;;;;;;24.08;15.98;;;8.60;99.90;;;;;;5034471;28;20134;-61
2022/05/03 05:15:27;;;;;;;22.02;16.65;;;8.60;99.90;;;;;;5045309;28;20049;-62
2022/05/03 05:17:55;;;;;;;25.05;16.90;;;8.70;99.90;;;;;;5055129;28;20132;-62
2022/05/03 05:20:22;;;;;;;28.77;17.52;;;8.70;99.90;;;;;;5055168;28;20048;-61
2022/05/03 05:22:51;;;;;;;23.85;16.17;;;8.70;99.90;;;;;;5034375;28;20449;-61
2022/05/03 05:25:18;;;;;;;26.27;17.70;;;8.80;99.90;;;;;;5037493;28;20053;-62
2022/05/03 05:27:45;;;;;;;25.33;17.92;;;8.80;99.90;;;;;;5055860;28;20083;-62
2022/05/03 05:30:13;;;;;;;27.73;18.40;;;8.80;99.90;;;;;;5033992;28;20497;-62
2022/05/03 05:32:40;;;;;;;29.98;18.67;;;8.80;99.90;;;;;;5033914;28;20472;-62
2022/05/03 05:35:07;;;;;;;28.92;19.95;;;8.90;99.90;;;;;;5033050;28;20080;-62
2022/05/03 05:37:34;;;;;;;33.97;20.42;;;8.90;99.90;;;;;;5053776;28;20120;-62
2022/05/03 05:40:02;;;;;;;30.00;19.15;;;8.90;99.90;;;;;;5033340;28;20080;-61
2022/05/03 05:42:29;;;;;;;35.13;20.75;;;9.00;99.90;;;;;;5051217;28;20048;-62
2022/05/03 05:44:56;;;;;;;35.72;20.33;;;9.10;99.90;;;;;;5051088;28;20131;-61
2022/05/03 05:47:23;;;;;;;34.10;21.70;;;9.10;99.90;;;;;;5035148;28;20132;-61
2022/05/03 05:49:50;;;;;;;31.77;20.92;;;9.20;99.90;;;;;;5035753;28;20045;-62
2022/05/03 05:55:03;;;;;;;29.52;20.73;;;9.30;99.90;;;;;;5051026;28;20124;-62
2022/05/03 05:57:30;;;;;;;32.08;21.98;;;9.40;99.90;;;;;;5032727;28;20048;-61
2022/05/03 05:59:57;;;;;;;29.58;20.80;;;9.30;99.90;;;;;;5038196;28;20135;-62
2022/05/03 06:02:23;;;;;;;29.20;20.00;;;9.40;99.90;;;;;;5032943;28;20081;-61
2022/05/03 06:04:50;;;;;;;28.63;19.23;;;9.40;99.90;;;;;;5051728;28;20514;-62
2022/05/03 06:07:17;;;;;;;30.73;20.02;;;9.50;99.90;;;;;;5034168;28;20072;-62
2022/05/03 06:09:44;;;;;;;29.55;19.27;;;9.50;99.90;;;;;;5034159;28;20174;-62
2022/05/03 06:12:12;;;;;;;28.98;19.02;;;9.50;99.90;;;;;;5033200;28;20460;-62
2022/05/03 06:14:40;;;;;;;31.13;19.60;;;9.50;99.90;;;;;;5051641;28;20134;-62
2022/05/03 06:17:07;;;;;;;24.52;17.73;;;9.70;99.90;;;;;;5033267;28;20477;-62
2022/05/03 06:19:34;;;;;;;28.15;16.80;;;9.60;99.90;;;;;;5035757;28;20060;-62
2022/05/03 06:22:00;;;;;;;27.30;17.33;;;9.60;99.90;;;;;;5054730;28;20417;-62
2022/05/03 06:24:27;;;;;;;25.02;14.85;;;9.60;99.90;;;;;;5054241;28;20127;-62
2022/05/03 06:26:54;;;;;;;22.95;12.77;;;9.70;99.90;;;;;;5057095;28;20095;-62
2022/05/03 06:29:22;;;;;;;19.10;9.27;;;9.70;99.90;;;;;;5037171;28;20052;-63
2022/05/03 06:31:49;;;;;;;18.15;8.55;;;9.70;99.90;;;;;;5036506;28;20552;-62
2022/05/03 06:34:16;;;;;;;16.55;7.95;;;9.70;99.90;;;;;;5054924;28;20102;-61
2022/05/03 06:36:43;;;;;;;14.15;6.20;;;9.70;99.90;;;;;;5054785;28;20090;-62
2022/05/03 06:39:10;;;;;;;12.20;5.40;;;9.80;99.90;;;;;;5036022;28;20560;-65
2022/05/03 06:41:37;;;;;;;13.63;5.07;;;9.70;99.90;;;;;;5058264;28;20067;-61
2022/05/03 06:44:04;;;;;;;14.90;5.03;;;9.70;99.90;;;;;;5057288;28;20135;-62
2022/05/03 06:46:32;;;;;;;13.63;5.25;;;9.60;99.90;;;;;;5057669;28;20135;-63
2022/05/03 06:48:59;;;;;;;13.93;4.90;;;9.60;99.90;;;;;;5085289;28;20131;-63
2022/05/03 06:51:26;;;;;;;11.02;4.68;;;9.50;99.90;;;;;;5078637;28;20535;-62
2022/05/03 06:53:54;;;;;;;13.05;5.13;;;9.60;99.90;;;;;;5077454;28;20102;-62
2022/05/03 06:56:21;;;;;;;15.20;5.45;;;9.60;99.90;;;;;;5096537;28;20058;-61
2022/05/03 06:58:47;;;;;;;15.60;6.13;;;9.50;99.90;;;;;;5096376;28;20127;-61
2022/05/03 07:01:15;;;;;;;13.05;4.97;;;9.60;99.90;;;;;;5064892;28;20124;-61
2022/05/03 07:03:43;;;;;;;16.42;5.65;;;9.60;99.90;;;;;;5055589;28;20558;-62
2022/05/03 07:06:10;;;;;;;15.65;5.00;;;9.70;99.90;;;;;;5063275;28;20512;-62
2022/05/03 07:08:38;;;;;;;15.90;5.97;;;9.70;99.90;;;;;;5057804;28;20468;-62
2022/05/03 07:11:05;;;;;;;14.85;5.72;;;9.70;99.90;;;;;;5075377;28;20408;-62
2022/05/03 07:13:32;;;;;;;12.57;5.93;;;9.70;99.90;;;;;;5075082;28;20084;-62
2022/05/03 07:15:59;;;;;;;20.95;7.63;;;9.70;99.90;;;;;;5075728;28;20055;-62
2022/05/03 07:23:56;;;;;;;21.88;6.53;;;9.80;99.90;;;;;;5057759;28;20140;-62
2022/05/03 07:26:23;;;;;;;18.92;6.53;;;9.80;99.90;;;;;;5075660;28;20499;-61
2022/05/03 07:28:50;;;;;;;18.08;7.57;;;9.90;99.90;;;;;;5056767;28;20508;-61
2022/05/03 07:31:17;;;;;;;18.58;7.18;;;10.00;99.90;;;;;;5056217;28;20099;-62
2022/05/03 07:33:44;;;;;;;20.88;6.35;;;10.10;99.90;;;;;;5057459;28;20087;-61
2022/05/03 07:36:12;;;;;;;22.23;6.38;;;10.20;99.90;;;;;;5074906;28;20140;-62
2022/05/03 07:38:40;;;;;;;16.88;5.47;;;10.30;99.90;;;;;;5075494;28;20088;-62
2022/05/03 07:41:08;;;;;;;13.52;5.72;;;10.40;99.90;;;;;;5056513;28;20054;-61
2022/05/03 07:43:35;;;;;;;14.40;5.20;;;10.50;99.90;;;;;;5057189;28;20595;-63
2022/05/03 07:46:02;;;;;;;20.45;5.97;;;10.60;99.90;;;;;;5074812;28;20132;-62
2022/05/03 07:48:29;;;;;;;16.60;6.15;;;10.60;99.90;;;;;;5080386;28;20523;-64
2022/05/03 07:50:56;;;;;;;19.08;6.10;;;10.60;99.90;;;;;;5095441;28;20090;-62
2022/05/03 07:53:24;;;;;;;20.55;5.53;;;10.70;99.90;;;;;;5095480;28;20088;-61
2022/05/03 07:55:51;;;;;;;16.92;5.55;;;10.80;99.90;;;;;;5084203;28;20056;-61
2022/05/03 07:58:20;;;;;;;14.27;5.00;;;10.90;99.90;;;;;;5057095;28;20128;-62
2022/05/03 08:00:48;;;;;;;12.10;4.28;;;11.10;99.90;;;;;;5056486;28;20052;-62
2022/05/03 08:03:14;;;;;;;15.38;4.88;;;11.20;99.90;;;;;;5037433;28;20151;-62
2022/05/03 08:05:42;;;;;;;14.75;4.15;;;11.30;99.90;;;;;;5036321;28;20052;-61
2022/05/03 08:08:09;;;;;;;14.40;4.88;;;11.30;99.90;;;;;;5036536;28;20080;-61
2022/05/03 08:10:37;;;;;;;11.05;4.05;;;11.30;99.90;;;;;;5057293;28;20456;-62
2022/05/03 08:13:04;;;;;;;17.52;4.18;;;11.30;99.90;;;;;;5060935;28;20088;-61
2022/05/03 08:15:31;;;;;;;16.65;4.65;;;11.30;99.90;;;;;;5037018;28;20484;-62
2022/05/03 08:17:57;;;;;;;19.50;5.22;;;11.30;99.90;;;;;;5054274;28;20099;-61
2022/05/03 08:20:24;;;;;;;10.93;4.00;;;11.30;99.90;;;;;;5036683;28;20139;-62
2022/05/03 08:22:51;;;;;;;9.98;3.58;;;11.30;99.90;;;;;;5036557;28;20136;-62
2022/05/03 08:25:18;;;;;;;10.98;3.92;;;11.40;99.90;;;;;;5036166;28;20409;-62
2022/05/03 08:27:46;;;;;;;13.68;3.67;;;11.50;99.90;;;;;;5036433;28;20136;-62
2022/05/03 08:30:14;;;;;;;13.48;3.75;;;11.50;99.90;;;;;;5053417;28;20515;-62
2022/05/03 08:32:40;;;;;;;13.65;4.78;;;11.60;99.90;;;;;;5036060;28;20057;-62
2022/05/03 08:35:07;;;;;;;18.05;4.47;;;11.60;99.90;;;;;;5054247;28;20088;-62
2022/05/03 08:43:06;;;;;;;16.08;4.13;;;11.50;99.90;;;;;;5035170;28;20484;-63
2022/05/03 08:45:34;;;;;;;15.23;3.70;;;11.50;99.90;;;;;;5053308;28;20133;-63
2022/05/03 08:48:02;;;;;;;18.73;4.38;;;11.60;99.90;;;;;;5037978;28;20056;-63
2022/05/03 08:50:31;;;;;;;10.20;3.53;;;11.70;99.90;;;;;;5045774;28;20049;-62
2022/05/03 08:53:00;;;;;;;15.48;4.30;;;11.80;99.90;;;;;;5053051;28;20127;-62
2022/05/03 08:55:28;;;;;;;21.70;4.90;;;12.00;99.90;;;;;;5035952;28;20574;-62
2022/05/03 08:57:56;;;;;;;17.13;4.18;;;12.10;99.90;;;;;;5035816;28;20061;-62
2022/05/03 09:00:25;;;;;;;55.40;11.20;;;12.20;99.90;;;;;;5031632;28;20128;-62
2022/05/03 09:02:54;;;;;;;17.27;4.05;;;12.30;99.90;;;;;;5031529;28;20496;-62
2022/05/03 09:05:22;;;;;;;14.38;3.72;;;12.30;99.90;;;;;;5055808;28;20390;-62
2022/05/03 09:07:50;;;;;;;9.80;3.85;;;12.40;99.90;;;;;;5055017;28;20091;-62
2022/05/03 09:10:19;;;;;;;10.23;3.63;;;12.50;99.90;;;;;;5051804;28;20129;-62
2022/05/03 09:12:47;;;;;;;12.50;3.22;;;12.80;99.90;;;;;;5035240;28;20140;-62
2022/05/03 09:15:14;;;;;;;18.85;4.22;;;13.00;99.90;;;;;;5044156;28;20053;-62
2022/05/03 09:17:44;;;;;;;10.55;3.60;;;13.10;99.90;;;;;;5035662;28;20131;-62
2022/05/03 09:25:50;;;;;;;17.98;3.10;;;13.50;99.90;;;;;;5035365;28;20045;-63
2022/05/03 09:28:19;;;;;;;7.80;3.00;;;13.60;99.90;;;;;;5052501;28;20147;-62
2022/05/03 09:30:47;;;;;;;7.70;2.30;;;13.60;99.90;;;;;;5045701;28;20088;-63
2022/05/03 09:33:20;;;;;;;13.23;2.90;;;13.80;99.90;;;;;;5055312;28;20484;-62
2022/05/03 09:35:48;;;;;;;9.30;2.53;;;14.10;99.90;;;;;;5054742;28;20095;-63
2022/05/03 09:38:15;;;;;;;9.45;2.50;;;14.40;99.90;;;;;;5073004;28;20127;-62
2022/05/03 09:40:44;;;;;;;11.60;2.55;;;14.70;99.90;;;;;;5054432;28;20135;-62
2022/05/03 09:43:11;;;;;;;38.15;5.90;;;14.80;99.90;;;;;;5072876;28;20060;-62
2022/05/03 09:45:38;;;;;;;21.00;4.40;;;14.70;99.90;;;;;;5054856;28;20131;-63
2022/05/03 09:48:06;;;;;;;9.95;3.38;;;14.80;99.90;;;;;;5074552;28;20076;-62
2022/05/03 09:50:44;;;;;;;10.25;2.50;;;15.10;99.80;;;;;;5093014;28;20118;-63
2022/05/03 09:53:14;;;;;;;6.25;1.83;;;15.40;96.90;;;;;;5074720;28;20048;-63
2022/05/03 09:55:42;;;;;;;8.50;2.33;;;15.70;97.50;;;;;;5074452;28;20055;-63
2022/05/03 09:58:11;;;;;;;10.63;2.75;;;16.00;96.80;;;;;;5075129;28;20491;-63
2022/05/03 10:00:40;;;;;;;8.45;2.38;;;16.10;96.10;;;;;;5092767;28;20130;-63
2022/05/03 10:03:09;;;;;;;7.63;2.60;;;16.20;95.30;;;;;;5045142;28;20124;-63
2022/05/03 10:05:38;;;;;;;7.82;2.45;;;16.50;95.50;;;;;;5031301;28;20144;-62
2022/05/03 10:08:11;;;;;;;10.27;2.65;;;16.80;94.00;;;;;;5033128;28;20077;-64
2022/05/03 10:10:41;;;;;;;4.93;2.17;;;16.90;92.30;;;;;;5014110;28;20107;-62
2022/05/03 10:13:08;;;;;;;8.07;2.20;;;17.00;89.90;;;;;;5032602;28;20059;-62
2022/05/03 10:21:14;;;;;;;6.30;2.80;;;17.70;88.30;;;;;;5034776;28;20135;-63
2022/05/03 10:23:42;;;;;;;10.38;2.00;;;18.10;85.00;;;;;;5033988;28;20049;-63
2022/05/03 10:26:10;;;;;;;6.57;2.45;;;18.30;85.20;;;;;;5030657;28;20107;-62
2022/05/03 10:29:08;;;;;;;8.75;2.25;;;18.30;85.30;;;;;;5014696;28;20061;-62
2022/05/03 10:31:54;;;;;;;7.68;2.63;;;18.20;77.90;;;;;;5029720;28;20053;-62
2022/05/03 10:34:46;;;;;;;7.35;2.38;;;18.20;79.10;;;;;;5034766;28;20053;-62
2022/05/03 10:37:13;;;;;;;5.28;1.92;;;18.00;79.80;;;;;;5030865;28;20576;-63
2022/05/03 10:39:55;;;;;;;12.25;2.67;;;18.10;81.70;;;;;;5052552;28;20480;-61
2022/05/03 10:42:26;;;;;;;6.13;1.77;;;18.10;76.50;;;;;;5052420;28;20048;-62
2022/05/03 10:44:58;;;;;;;6.63;2.30;;;18.10;77.60;;;;;;5034038;28;20572;-63
2022/05/03 10:47:52;;;;;;;4.40;1.77;;;17.80;76.90;;;;;;5034405;28;20091;-63
2022/05/03 10:50:26;;;;;;;7.00;1.70;;;17.70;75.80;;;;;;5032547;28;20049;-63
2022/05/03 10:53:24;;;;;;;8.07;1.98;;;17.80;77.80;;;;;;5031685;28;20497;-63
2022/05/03 10:56:12;;;;;;;6.30;1.90;;;17.90;75.20;;;;;;5032508;28;20053;-63
2022/05/03 10:58:41;;;;;;;8.07;2.15;;;17.90;74.70;;;;;;5014264;28;20053;-63
2022/05/03 11:01:10;;;;;;;6.55;1.52;;;18.00;77.60;;;;;;5015802;28;20058;-63
2022/05/03 11:03:38;;;;;;;6.95;1.98;;;18.10;76.50;;;;;;5052286;28;20103;-63
2022/05/03 11:06:49;;;;;;;7.38;1.92;;;18.20;76.20;;;;;;5053623;28;20088;-63
2022/05/03 11:09:26;;;;;;;6.57;2.00;;;18.00;74.30;;;;;;5038087;28;20057;-62
2022/05/03 11:12:00;;;;;;;4.90;1.98;;;17.80;74.50;;;;;;5055786;28;20519;-62
2022/05/03 11:14:55;;;;;;;6.53;2.13;;;17.90;75.30;;;;;;5037569;28;20061;-62
2022/05/03 11:17:23;;;;;;;7.40;1.83;;;18.20;73.80;;;;;;5055667;28;20562;-62
2022/05/03 11:19:55;;;;;;;7.80;2.05;;;18.30;75.50;;;;;;5066388;28;20052;-62
2022/05/03 11:22:24;;;;;;;6.03;1.90;;;18.00;73.40;;;;;;5036076;28;20053;-62
2022/05/03 11:24:52;;;;;;;4.22;1.42;;;18.00;74.40;;;;;;5053938;28;20045;-62
2022/05/03 11:27:22;;;;;;;6.85;2.00;;;18.20;73.80;;;;;;5036778;28;20049;-62
2022/05/03 11:29:50;;;;;;;9.37;2.33;;;18.20;73.30;;;;;;5036853;28;20503;-62
2022/05/03 11:32:26;;;;;;;6.88;2.22;;;18.40;73.10;;;;;;5054178;28;20155;-61
2022/05/03 11:35:03;;;;;;;5.95;1.90;;;18.50;72.70;;;;;;5053744;28;20128;-62
2022/05/03 11:37:30;;;;;;;5.55;2.10;;;18.90;71.90;;;;;;5054471;28;20052;-63
2022/05/03 11:40:08;;;;;;;5.25;1.88;;;19.00;71.80;;;;;;5054140;28;20119;-62
2022/05/03 11:42:41;;;;;;;9.15;2.55;;;19.60;70.90;;;;;;5036591;28;20083;-63
2022/05/03 11:45:10;;;;;;;5.18;1.73;;;19.90;69.40;;;;;;5053810;28;20496;-63
2022/05/03 11:47:39;;;;;;;6.15;1.88;;;20.20;68.80;;;;;;5035432;28;20061;-63
2022/05/03 11:50:07;;;;;;;5.85;1.73;;;20.00;68.60;;;;;;5073311;28;20094;-63
2022/05/03 11:58:06;;;;;;;5.32;1.70;;;19.40;68.70;;;;;;5036290;28;20044;-62
2022/05/03 12:00:45;;;;;;;7.20;1.60;;;19.90;68.10;;;;;;5053900;28;20119;-62
2022/05/03 12:03:12;;;;;;;6.68;1.50;;;19.90;66.40;;;;;;5066148;28;20140;-63
2022/05/03 12:05:39;;;;;;;4.45;1.90;;;19.70;67.70;;;;;;5055056;28;20092;-63
2022/05/03 12:08:17;;;;;;;5.55;1.80;;;19.90;68.20;;;;;;5035840;28;20067;-63
2022/05/03 12:10:44;;;;;;;7.03;1.90;;;20.10;66.10;;;;;;5038506;28;20400;-63
2022/05/03 12:13:14;;;;;;;5.80;1.73;;;19.90;66.70;;;;;;5039940;28;20131;-63
2022/05/03 12:15:43;;;;;;;5.25;1.77;;;19.80;66.00;;;;;;5052975;28;20060;-63
2022/05/03 12:18:13;;;;;;;7.25;2.08;;;20.00;66.60;;;;;;5051427;28;20065;-63
2022/05/03 12:20:51;;;;;;;4.57;1.80;;;20.80;65.60;;;;;;5035958;28;20080;-63
2022/05/03 12:23:21;;;;;;;5.72;1.65;;;21.00;64.50;;;;;;5038925;28;20056;-63
2022/05/03 12:25:50;;;;;;;4.30;1.80;;;21.30;63.80;;;;;;5054670;28;20081;-63
2022/05/03 12:28:19;;;;;;;4.85;1.75;;;21.30;63.90;;;;;;5054438;28;20091;-63
2022/05/03 12:30:55;;;;;;;5.93;1.80;;;21.30;63.70;;;;;;5072873;28;20127;-62
2022/05/03 12:33:25;;;;;;;6.90;1.77;;;21.10;63.30;;;;;;5074113;28;20060;-63
2022/05/03 12:35:52;;;;;;;4.40;1.58;;;21.00;63.60;;;;;;5074519;28;20044;-63
2022/05/03 12:38:22;;;;;;;6.30;1.67;;;21.30;61.70;;;;;;5073638;28;20488;-63
2022/05/03 12:40:54;;;;;;;4.75;1.85;;;22.00;63.10;;;;;;5056109;28;20507;-63
2022/05/03 12:43:23;;;;;;;5.75;2.20;;;22.80;62.40;;;;;;5021571;28;20169;-63
2022/05/03 12:45:57;;;;;;;5.90;2.10;;;23.10;61.50;;;;;;5069122;28;20126;-62
2022/05/03 12:48:24;;;;;;;6.95;2.25;;;22.80;59.10;;;;;;5078872;28;20491;-62
2022/05/03 12:50:50;;;;;;;8.25;1.85;;;22.50;60.60;;;;;;5075222;28;20482;-62
2022/05/03 12:53:17;;;;;;;10.48;2.00;;;21.80;61.00;;;;;;5094279;28;20126;-63
2022/05/03 12:55:44;;;;;;;8.25;1.88;;;22.20;61.40;;;;;;5056176;28;20052;-63
2022/05/03 12:58:25;;;;;;;4.70;1.75;;;23.10;61.10;;;;;;5055528;28;20110;-63
2022/05/03 13:00:54;;;;;;;6.03;2.05;;;23.40;60.50;;;;;;5055640;28;20499;-62
2022/05/03 13:03:21;;;;;;;6.25;1.90;;;23.70;59.50;;;;;;5055612;28;20090;-62
2022/05/03 13:05:49;;;;;;;6.25;1.75;;;24.10;59.60;;;;;;5055600;28;20090;-63
2022/05/03 13:08:16;;;;;;;6.57;1.95;;;24.30;58.70;;;;;;5073512;28;20044;-63
2022/05/03 13:10:43;;;;;;;4.88;1.77;;;24.70;57.70;;;;;;5073146;28;20094;-63
2022/05/03 13:13:11;;;;;;;6.47;1.88;;;24.50;57.00;;;;;;5055166;28;20503;-63
2022/05/03 13:15:38;;;;;;;6.20;1.70;;;24.20;56.70;;;;;;5055595;28;20063;-62
2022/05/03 13:18:07;;;;;;;7.43;1.77;;;24.10;57.00;;;;;;5073493;28;20048;-63
2022/05/03 13:20:34;;;;;;;6.27;1.87;;;24.80;56.90;;;;;;5054753;28;20556;-63
2022/05/03 13:23:01;;;;;;;7.25;1.90;;;25.20;56.20;;;;;;5055206;28;20373;-63
2022/05/03 13:25:29;;;;;;;4.78;1.70;;;25.30;55.60;;;;;;5055461;28;20048;-63
2022/05/03 13:27:56;;;;;;;4.72;1.83;;;25.40;55.20;;;;;;5072015;28;20080;-63
2022/05/03 13:30:24;;;;;;;5.85;2.17;;;25.30;55.30;;;;;;5055323;28;20127;-63
2022/05/03 13:32:51;;;;;;;5.03;1.50;;;25.70;54.90;;;;;;5072616;28;20445;-63
2022/05/03 13:40:28;;;;;;;5.82;2.05;;;26.10;53.80;;;;;;5055465;28;20114;-64
2022/05/03 13:40:51;;;;;;;8.80;2.08;;;25.80;54.00;;;;;;5053953;28;20044;-63
2022/05/03 13:43:18;;;;;;;11.85;2.22;;;26.10;53.40;;;;;;5073189;28;20045;-63
2022/05/03 13:45:45;;;;;;;7.40;1.88;;;25.70;53.50;;;;;;5073174;28;20114;-63